Time;durP1;ratioP1;P1;durP2;ratioP2;P2;SDS_P1;SDS_P2;PMS_P1;PMS_P2;Temp;Humidity;BMP_temperature;BMP_pressure;BME280_temperature;BME280_humidity;BME280_pressure;Samples;Min_cycle;Max_cycle;Signal;HPM_P1;HPM_P2
2022/12/14 00:01:20;;;;;;;35.17;19.52;;;;;;;;;;5055088;28;20049;-74
2022/12/14 00:03:47;;;;;;;31.77;18.50;;;;;;;;;;5054864;28;20138;-74
2022/12/14 00:06:17;;;;;;;32.58;18.70;;;;;;;;;;5055482;28;20048;-74
2022/12/14 00:08:43;;;;;;;34.33;19.73;;;;;;;;;;5053573;28;20064;-74
2022/12/14 00:11:09;;;;;;;38.53;20.52;;;;;;;;;;5052156;28;20073;-74
2022/12/14 00:13:36;;;;;;;39.08;20.80;;;;;;;;;;5055291;28;20045;-74
2022/12/14 00:16:06;;;;;;;37.72;20.85;;;;;;;;;;5055071;28;20037;-74
2022/12/14 00:18:32;;;;;;;36.55;20.02;;;;;;;;;;5053729;28;20045;-74
2022/12/14 00:21:09;;;;;;;36.10;21.00;;;;;;;;;;5054601;28;20045;-74
2022/12/14 00:23:35;;;;;;;36.08;18.55;;;;;;;;;;5054884;28;20045;-74
2022/12/14 00:26:11;;;;;;;36.35;20.52;;;;;;;;;;5049913;28;20042;-74
2022/12/14 00:28:37;;;;;;;37.40;21.20;;;;;;;;;;5047480;28;20071;-74
2022/12/14 00:31:03;;;;;;;46.10;22.02;;;;;;;;;;5054795;28;20048;-74
2022/12/14 00:33:29;;;;;;;43.65;23.08;;;;;;;;;;5054571;28;20101;-74
2022/12/14 00:35:55;;;;;;;47.05;23.98;;;;;;;;;;5054435;28;20469;-74
2022/12/14 00:38:21;;;;;;;38.95;22.63;;;;;;;;;;5036210;28;20052;-74
2022/12/14 00:40:47;;;;;;;43.05;22.52;;;;;;;;;;5053919;28;20040;-74
2022/12/14 00:43:13;;;;;;;46.03;22.73;;;;;;;;;;5054381;28;20484;-74
2022/12/14 00:45:39;;;;;;;48.38;25.58;;;;;;;;;;5054314;28;20048;-74
2022/12/14 00:48:05;;;;;;;43.78;23.70;;;;;;;;;;5053526;28;20044;-74
2022/12/14 00:50:31;;;;;;;43.90;23.98;;;;;;;;;;5054261;28;20124;-74
2022/12/14 00:52:57;;;;;;;44.90;24.42;;;;;;;;;;5054160;28;20511;-74
2022/12/14 00:55:23;;;;;;;39.17;22.77;;;;;;;;;;5055627;28;20045;-74
2022/12/14 00:57:50;;;;;;;43.05;22.98;;;;;;;;;;5057882;28;20040;-74
2022/12/14 01:00:16;;;;;;;38.90;21.20;;;;;;;;;;5056629;28;20110;-74
2022/12/14 01:02:42;;;;;;;40.63;21.17;;;;;;;;;;5054307;28;20132;-74
2022/12/14 01:05:08;;;;;;;39.15;22.52;;;;;;;;;;5021411;28;20124;-74
2022/12/14 01:07:34;;;;;;;42.88;22.85;;;;;;;;;;5034015;28;20049;-74
2022/12/14 01:10:00;;;;;;;39.80;20.75;;;;;;;;;;5051874;28;20033;-74
2022/12/14 01:12:26;;;;;;;43.00;22.48;;;;;;;;;;5035824;28;20102;-74
2022/12/14 01:14:52;;;;;;;40.35;21.25;;;;;;;;;;5053276;28;20098;-74
2022/12/14 01:17:18;;;;;;;35.22;19.98;;;;;;;;;;5053762;28;20043;-74
2022/12/14 01:19:44;;;;;;;30.38;17.13;;;;;;;;;;5052147;28;20107;-74
2022/12/14 01:22:10;;;;;;;30.33;17.50;;;;;;;;;;5053275;28;20041;-74
2022/12/14 01:24:36;;;;;;;28.73;16.50;;;;;;;;;;5053056;28;20045;-74
2022/12/14 01:27:02;;;;;;;30.92;18.60;;;;;;;;;;5007645;28;20100;-74
2022/12/14 01:29:28;;;;;;;33.20;18.17;;;;;;;;;;5046947;28;20113;-74
2022/12/14 01:31:54;;;;;;;30.80;18.92;;;;;;;;;;5053617;28;20049;-74
2022/12/14 01:34:20;;;;;;;36.70;19.70;;;;;;;;;;5053620;28;20052;-74
2022/12/14 01:36:47;;;;;;;35.10;20.35;;;;;;;;;;5053433;28;20047;-74
2022/12/14 01:39:14;;;;;;;37.88;21.20;;;;;;;;;;5051837;28;20045;-74
2022/12/14 01:41:44;;;;;;;36.45;20.75;;;;;;;;;;5053379;28;20473;-74
2022/12/14 01:44:10;;;;;;;38.13;21.05;;;;;;;;;;5053296;28;20037;-74
2022/12/14 01:46:47;;;;;;;36.42;20.45;;;;;;;;;;5053520;28;20120;-74
2022/12/14 01:49:27;;;;;;;36.33;21.13;;;;;;;;;;5034918;28;20071;-74
2022/12/14 01:51:57;;;;;;;40.15;21.25;;;;;;;;;;5052897;28;20102;-74
2022/12/14 01:54:25;;;;;;;36.47;20.23;;;;;;;;;;5052365;28;20068;-74
2022/12/14 01:56:52;;;;;;;36.38;20.00;;;;;;;;;;5053421;28;20124;-74
2022/12/14 01:59:22;;;;;;;36.30;20.25;;;;;;;;;;5052582;28;20091;-74
2022/12/14 02:01:48;;;;;;;36.28;20.55;;;;;;;;;;5053439;28;20103;-74
2022/12/14 02:04:16;;;;;;;37.97;19.88;;;;;;;;;;5052899;28;20080;-74
2022/12/14 02:06:42;;;;;;;35.50;19.33;;;;;;;;;;5058335;28;20067;-74
2022/12/14 02:09:10;;;;;;;34.80;19.25;;;;;;;;;;5059049;28;20037;-74
2022/12/14 02:11:51;;;;;;;32.67;18.80;;;;;;;;;;5058486;28;20057;-74
2022/12/14 02:14:18;;;;;;;37.13;20.23;;;;;;;;;;5057451;28;20052;-74
2022/12/14 02:16:44;;;;;;;39.38;21.42;;;;;;;;;;5058645;28;20167;-74
2022/12/14 02:19:10;;;;;;;37.22;20.83;;;;;;;;;;5059057;28;20524;-74
2022/12/14 02:21:44;;;;;;;37.38;20.00;;;;;;;;;;5059660;28;20101;-74
2022/12/14 02:24:13;;;;;;;37.58;20.00;;;;;;;;;;5059777;28;20132;-74
2022/12/14 02:26:43;;;;;;;37.63;19.30;;;;;;;;;;5057828;28;20093;-74
2022/12/14 02:29:09;;;;;;;35.60;20.50;;;;;;;;;;5058312;28;20036;-74
2022/12/14 02:32:01;;;;;;;36.33;20.15;;;;;;;;;;5059336;28;20111;-74
2022/12/14 02:34:45;;;;;;;35.83;18.92;;;;;;;;;;5043696;28;20447;-74
2022/12/14 02:37:18;;;;;;;38.25;20.00;;;;;;;;;;5058879;28;20102;-74
2022/12/14 02:39:55;;;;;;;36.35;19.88;;;;;;;;;;5059385;28;20415;-74
2022/12/14 02:42:25;;;;;;;38.30;19.60;;;;;;;;;;5031356;28;20045;-74
2022/12/14 02:44:54;;;;;;;34.05;19.27;;;;;;;;;;5059741;28;20052;-74
2022/12/14 02:47:27;;;;;;;35.08;20.63;;;;;;;;;;5058989;28;20434;-74
2022/12/14 02:50:05;;;;;;;36.78;19.42;;;;;;;;;;5059371;28;20049;-74
2022/12/14 02:52:47;;;;;;;35.33;18.67;;;;;;;;;;5040904;28;20060;-74
2022/12/14 02:55:16;;;;;;;32.35;19.50;;;;;;;;;;5059837;28;20055;-74
2022/12/14 02:57:51;;;;;;;40.42;20.27;;;;;;;;;;5058395;28;20040;-74
2022/12/14 03:00:18;;;;;;;33.53;19.30;;;;;;;;;;5059298;28;20381;-74
2022/12/14 03:02:44;;;;;;;36.85;20.42;;;;;;;;;;5059163;28;20091;-74
2022/12/14 03:05:11;;;;;;;38.55;20.23;;;;;;;;;;5058970;28;20086;-74
2022/12/14 03:07:43;;;;;;;35.92;19.42;;;;;;;;;;5058051;28;20119;-74
2022/12/14 03:10:09;;;;;;;35.80;18.95;;;;;;;;;;5059317;28;20045;-74
2022/12/14 03:12:38;;;;;;;38.15;19.70;;;;;;;;;;5059046;28;20045;-74
2022/12/14 03:15:04;;;;;;;34.42;19.35;;;;;;;;;;5059147;28;20124;-74
2022/12/14 03:17:33;;;;;;;37.28;21.38;;;;;;;;;;5055995;28;20056;-74
2022/12/14 03:20:05;;;;;;;37.65;20.58;;;;;;;;;;5055878;28;20151;-74
2022/12/14 03:22:35;;;;;;;38.33;20.25;;;;;;;;;;5055679;28;20048;-74
2022/12/14 03:25:03;;;;;;;38.22;21.63;;;;;;;;;;5056023;28;20056;-74
2022/12/14 03:27:37;;;;;;;41.65;21.98;;;;;;;;;;5054934;28;20127;-74
2022/12/14 03:30:06;;;;;;;40.58;22.33;;;;;;;;;;5055181;28;20124;-74
2022/12/14 03:32:33;;;;;;;39.53;20.48;;;;;;;;;;5037272;28;20405;-74
2022/12/14 03:35:04;;;;;;;44.42;22.17;;;;;;;;;;5055420;28;20041;-74
2022/12/14 03:37:38;;;;;;;40.10;21.13;;;;;;;;;;5055307;28;20037;-74
2022/12/14 03:40:07;;;;;;;44.20;22.35;;;;;;;;;;5055452;28;20449;-74
2022/12/14 03:42:45;;;;;;;48.30;22.88;;;;;;;;;;5055270;28;20400;-74
2022/12/14 03:45:14;;;;;;;42.45;21.77;;;;;;;;;;5054722;28;20045;-74
2022/12/14 03:47:40;;;;;;;46.10;23.15;;;;;;;;;;5052772;28;20875;-74
2022/12/14 03:50:07;;;;;;;45.92;23.70;;;;;;;;;;5055670;28;20063;-74
2022/12/14 03:52:46;;;;;;;44.00;22.77;;;;;;;;;;5055411;28;20098;-74
2022/12/14 03:55:15;;;;;;;42.72;22.70;;;;;;;;;;5054825;28;20041;-74
2022/12/14 03:57:55;;;;;;;42.60;22.63;;;;;;;;;;5055717;28;20044;-74
2022/12/14 04:00:22;;;;;;;41.35;21.67;;;;;;;;;;5059924;28;20044;-74
2022/12/14 04:02:52;;;;;;;42.97;21.33;;;;;;;;;;5058409;28;20052;-74
2022/12/14 04:05:22;;;;;;;37.95;21.20;;;;;;;;;;5055371;28;20128;-74
2022/12/14 04:08:10;;;;;;;41.70;20.92;;;;;;;;;;5054438;28;20099;-74
2022/12/14 04:19:06;;;;;;;36.60;19.85;;;;;;;;;;5053692;28;20045;-74
2022/12/14 04:21:47;;;;;;;36.65;19.38;;;;;;;;;;5042071;28;20167;-74
2022/12/14 04:27:35;;;;;;;36.40;20.00;;;;;;;;;;5054239;28;20063;-74
2022/12/14 04:30:02;;;;;;;34.83;17.98;;;;;;;;;;5009160;28;20577;-74
2022/12/14 04:32:30;;;;;;;34.65;18.67;;;;;;;;;;4995742;28;20061;-74
2022/12/14 04:35:00;;;;;;;36.83;19.65;;;;;;;;;;5012425;28;20120;-74
2022/12/14 04:37:27;;;;;;;37.50;19.17;;;;;;;;;;5012502;28;20050;-74
2022/12/14 04:39:59;;;;;;;37.00;19.45;;;;;;;;;;5012706;28;20104;-74
2022/12/14 04:42:27;;;;;;;33.40;18.38;;;;;;;;;;5012705;28;20390;-74
2022/12/14 04:44:56;;;;;;;35.83;19.98;;;;;;;;;;5012142;28;20038;-74
2022/12/14 04:47:24;;;;;;;38.95;18.58;;;;;;;;;;5011960;28;20080;-74
2022/12/14 04:49:53;;;;;;;36.72;19.98;;;;;;;;;;5012159;28;20073;-74
2022/12/14 04:52:45;;;;;;;32.25;17.52;;;;;;;;;;5010948;28;20056;-74
2022/12/14 04:55:23;;;;;;;36.13;18.42;;;;;;;;;;5011243;28;20058;-74
2022/12/14 04:58:09;;;;;;;33.45;17.90;;;;;;;;;;5010407;28;20041;-74
2022/12/14 05:00:37;;;;;;;38.33;19.67;;;;;;;;;;5012192;28;20395;-74
2022/12/14 05:03:17;;;;;;;31.48;17.90;;;;;;;;;;5012249;28;20516;-75
2022/12/14 05:06:06;;;;;;;29.48;18.25;;;;;;;;;;5024511;28;20528;-74
2022/12/14 05:08:48;;;;;;;32.90;17.67;;;;;;;;;;4943379;29;20059;-74
2022/12/14 05:11:26;;;;;;;36.85;18.40;;;;;;;;;;4937348;29;20538;-75
2022/12/14 05:13:52;;;;;;;30.92;17.77;;;;;;;;;;4953185;29;20051;-74
2022/12/14 05:16:19;;;;;;;31.60;16.70;;;;;;;;;;4953723;29;20102;-74
2022/12/14 05:18:45;;;;;;;34.85;18.00;;;;;;;;;;4943500;29;20044;-74
2022/12/14 05:23:57;;;;;;;34.72;20.13;;;;;;;;;;4953402;29;20043;-74
2022/12/14 05:26:23;;;;;;;35.15;18.42;;;;;;;;;;4953305;29;20047;-74
2022/12/14 05:28:49;;;;;;;37.17;18.42;;;;;;;;;;4953386;29;20078;-74
2022/12/14 05:31:16;;;;;;;31.45;18.70;;;;;;;;;;4952950;29;20078;-74
2022/12/14 05:33:42;;;;;;;38.60;19.90;;;;;;;;;;4953578;29;20059;-74
2022/12/14 05:36:08;;;;;;;37.30;19.50;;;;;;;;;;4953166;29;20055;-74
2022/12/14 05:38:35;;;;;;;37.60;18.80;;;;;;;;;;4952799;29;20070;-74
2022/12/14 05:41:01;;;;;;;41.00;20.30;;;;;;;;;;4933181;29;20048;-74
2022/12/14 05:43:27;;;;;;;38.22;19.10;;;;;;;;;;4940273;29;20047;-74
2022/12/14 05:46:00;;;;;;;36.75;19.42;;;;;;;;;;5017966;28;20061;-74
2022/12/14 05:48:26;;;;;;;40.67;20.67;;;;;;;;;;5035202;28;20048;-74
2022/12/14 05:50:52;;;;;;;34.78;19.10;;;;;;;;;;5052417;28;20392;-74
2022/12/14 05:53:18;;;;;;;34.90;19.40;;;;;;;;;;5033692;28;20101;-74
2022/12/14 05:55:47;;;;;;;38.20;20.20;;;;;;;;;;5035299;28;20048;-74
2022/12/14 05:58:14;;;;;;;35.00;18.83;;;;;;;;;;5035298;28;20045;-74
2022/12/14 06:00:40;;;;;;;38.35;19.17;;;;;;;;;;5032107;28;20060;-74
2022/12/14 06:03:06;;;;;;;38.03;20.85;;;;;;;;;;5053106;28;20045;-75
2022/12/14 06:05:32;;;;;;;46.72;23.60;;;;;;;;;;5053142;28;20098;-74
2022/12/14 06:07:58;;;;;;;40.65;22.00;;;;;;;;;;5053145;28;20048;-74
2022/12/14 06:10:24;;;;;;;38.67;20.42;;;;;;;;;;5034281;28;20051;-75
2022/12/14 06:12:50;;;;;;;36.35;18.58;;;;;;;;;;5053364;28;20045;-74
2022/12/14 06:15:16;;;;;;;38.78;20.42;;;;;;;;;;5052672;28;20071;-74
2022/12/14 06:17:43;;;;;;;35.85;19.65;;;;;;;;;;5053525;28;20071;-74
2022/12/14 06:20:09;;;;;;;38.72;19.55;;;;;;;;;;5052377;28;20051;-74
2022/12/14 06:22:36;;;;;;;39.00;19.55;;;;;;;;;;5052454;28;20045;-74
2022/12/14 06:25:02;;;;;;;40.22;18.42;;;;;;;;;;5052226;28;20044;-74
2022/12/14 06:27:28;;;;;;;34.20;19.80;;;;;;;;;;5052599;28;20091;-74
2022/12/14 06:29:56;;;;;;;38.22;19.00;;;;;;;;;;5051784;28;20056;-74
2022/12/14 06:32:22;;;;;;;34.85;18.75;;;;;;;;;;5052915;28;20057;-74
2022/12/14 06:34:48;;;;;;;32.80;17.77;;;;;;;;;;5034846;28;20412;-74
2022/12/14 06:37:15;;;;;;;31.27;16.90;;;;;;;;;;5052742;28;20377;-74
2022/12/14 06:39:41;;;;;;;34.80;17.77;;;;;;;;;;5034916;28;20049;-74
2022/12/14 06:42:07;;;;;;;34.97;18.92;;;;;;;;;;5050001;28;20484;-74
2022/12/14 06:44:36;;;;;;;43.30;21.05;;;;;;;;;;5052721;28;20381;-74
2022/12/14 06:47:02;;;;;;;35.92;19.05;;;;;;;;;;5052819;28;20057;-74
2022/12/14 06:49:28;;;;;;;39.28;19.35;;;;;;;;;;5034811;28;20045;-75
2022/12/14 06:51:54;;;;;;;36.20;19.17;;;;;;;;;;5052210;28;20065;-76
2022/12/14 06:54:20;;;;;;;36.88;18.52;;;;;;;;;;5056037;28;20051;-75
2022/12/14 06:56:47;;;;;;;39.60;19.98;;;;;;;;;;5055557;28;20087;-76
2022/12/14 06:59:15;;;;;;;42.90;20.77;;;;;;;;;;5057357;28;20052;-76
2022/12/14 07:01:41;;;;;;;41.78;21.98;;;;;;;;;;5058433;28;20044;-75
2022/12/14 07:04:08;;;;;;;38.03;20.98;;;;;;;;;;5058943;28;20052;-74
2022/12/14 07:06:35;;;;;;;45.35;21.13;;;;;;;;;;5059509;28;20044;-74
2022/12/14 07:09:03;;;;;;;47.63;21.40;;;;;;;;;;5056981;28;20045;-74
2022/12/14 07:11:29;;;;;;;41.63;21.67;;;;;;;;;;5037601;28;20553;-75
2022/12/14 07:13:55;;;;;;;39.72;21.13;;;;;;;;;;5056454;28;20053;-75
2022/12/14 07:16:25;;;;;;;46.95;22.88;;;;;;;;;;5056171;28;20045;-74
2022/12/14 07:18:53;;;;;;;36.90;21.80;;;;;;;;;;5055609;28;20037;-74
2022/12/14 07:21:19;;;;;;;44.67;22.38;;;;;;;;;;5036703;28;20045;-74
2022/12/14 07:23:46;;;;;;;42.45;22.15;;;;;;;;;;5056000;28;20071;-74
2022/12/14 07:26:17;;;;;;;40.17;22.35;;;;;;;;;;5055788;28;20443;-74
2022/12/14 07:28:43;;;;;;;36.95;22.48;;;;;;;;;;5056231;28;20040;-74
2022/12/14 07:31:12;;;;;;;39.92;24.00;;;;;;;;;;5054792;28;20492;-74
2022/12/14 07:33:38;;;;;;;40.00;21.42;;;;;;;;;;5054936;28;20057;-74
2022/12/14 07:36:08;;;;;;;37.65;19.40;;;;;;;;;;5055428;28;20060;-74
2022/12/14 07:38:35;;;;;;;35.70;19.75;;;;;;;;;;5055821;28;20116;-74
2022/12/14 07:41:06;;;;;;;34.92;19.77;;;;;;;;;;5054986;28;20106;-74
2022/12/14 07:43:32;;;;;;;42.83;21.10;;;;;;;;;;5054783;28;20045;-74
2022/12/14 07:46:00;;;;;;;39.42;20.33;;;;;;;;;;5037556;28;20049;-75
2022/12/14 07:48:26;;;;;;;38.25;19.98;;;;;;;;;;5055653;28;20048;-76
2022/12/14 07:50:52;;;;;;;36.40;18.88;;;;;;;;;;5021389;28;20045;-74
2022/12/14 07:53:18;;;;;;;38.28;19.92;;;;;;;;;;5055589;28;20051;-74
2022/12/14 07:55:44;;;;;;;33.83;18.17;;;;;;;;;;5055614;28;20486;-74
2022/12/14 07:58:10;;;;;;;39.53;19.75;;;;;;;;;;5054529;28;20124;-75
2022/12/14 08:00:36;;;;;;;35.80;19.23;;;;;;;;;;5036424;28;20496;-75
2022/12/14 08:03:02;;;;;;;36.00;18.35;;;;;;;;;;5037141;28;20080;-75
2022/12/14 08:05:29;;;;;;;39.30;20.17;;;;;;;;;;5044103;28;20116;-76
2022/12/14 08:07:55;;;;;;;42.38;20.48;;;;;;;;;;5017813;28;20120;-76
2022/12/14 08:10:21;;;;;;;39.30;19.60;;;;;;;;;;5036075;28;20096;-76
2022/12/14 08:12:49;;;;;;;43.03;20.23;;;;;;;;;;5037622;28;20084;-76
2022/12/14 08:15:15;;;;;;;43.63;21.45;;;;;;;;;;5054700;28;20124;-76
2022/12/14 08:17:41;;;;;;;43.90;22.48;;;;;;;;;;5036827;28;20052;-75
2022/12/14 08:20:07;;;;;;;50.33;24.55;;;;;;;;;;5054949;28;20041;-75
2022/12/14 08:22:33;;;;;;;47.35;23.00;;;;;;;;;;5053317;28;20036;-75
2022/12/14 08:24:59;;;;;;;41.60;21.10;;;;;;;;;;5054742;28;20076;-75
2022/12/14 08:27:25;;;;;;;36.20;19.73;;;;;;;;;;5054717;28;20056;-75
2022/12/14 08:29:51;;;;;;;37.03;20.05;;;;;;;;;;5036814;28;20045;-75
2022/12/14 08:32:18;;;;;;;43.72;21.85;;;;;;;;;;5035018;28;20060;-75
2022/12/14 08:34:45;;;;;;;37.30;19.33;;;;;;;;;;5053563;28;20400;-75
2022/12/14 08:37:11;;;;;;;40.38;19.23;;;;;;;;;;5036461;28;20488;-74
2022/12/14 08:39:37;;;;;;;36.60;18.70;;;;;;;;;;5037858;28;20115;-75
2022/12/14 08:42:03;;;;;;;37.20;19.50;;;;;;;;;;5024651;28;20057;-75
2022/12/14 08:44:29;;;;;;;33.65;18.30;;;;;;;;;;5034685;28;20042;-74
2022/12/14 08:46:55;;;;;;;39.17;19.38;;;;;;;;;;5036918;28;20048;-76
2022/12/14 08:49:21;;;;;;;35.75;18.30;;;;;;;;;;5037059;28;20052;-76
2022/12/14 08:51:47;;;;;;;39.33;21.50;;;;;;;;;;5036401;28;20095;-76
2022/12/14 08:54:13;;;;;;;34.55;19.15;;;;;;;;;;5036595;28;20044;-75
2022/12/14 08:56:39;;;;;;;35.83;17.98;;;;;;;;;;5036470;28;20080;-75
2022/12/14 08:59:05;;;;;;;33.70;16.85;;;;;;;;;;5053457;28;20504;-75
2022/12/14 09:01:31;;;;;;;30.45;16.75;;;;;;;;;;5036119;28;20045;-75
2022/12/14 09:04:01;;;;;;;34.22;18.15;;;;;;;;;;5036020;28;20041;-75
2022/12/14 09:06:27;;;;;;;38.20;17.73;;;;;;;;;;5035380;28;20500;-75
2022/12/14 09:08:53;;;;;;;30.80;17.33;;;;;;;;;;5036117;28;20048;-76
2022/12/14 09:11:20;;;;;;;31.42;16.10;;;;;;;;;;5052229;28;20052;-75
2022/12/14 09:13:46;;;;;;;29.15;16.70;;;;;;;;;;5053247;28;20056;-75
2022/12/14 09:16:13;;;;;;;28.80;16.48;;;;;;;;;;5052943;28;20512;-75
2022/12/14 09:18:40;;;;;;;30.77;16.88;;;;;;;;;;5053779;28;20076;-75
2022/12/14 09:21:07;;;;;;;29.83;16.73;;;;;;;;;;5049257;28;20043;-75
2022/12/14 09:23:33;;;;;;;31.02;17.25;;;;;;;;;;5053031;28;20148;-75
2022/12/14 09:26:07;;;;;;;29.15;16.67;;;;;;;;;;5035589;28;20049;-76
2022/12/14 09:28:34;;;;;;;30.88;17.13;;;;;;;;;;5053513;28;20095;-76
2022/12/14 09:31:02;;;;;;;30.02;16.77;;;;;;;;;;5053918;28;20118;-75
2022/12/14 09:33:28;;;;;;;31.45;17.83;;;;;;;;;;5035753;28;20085;-76
2022/12/14 09:36:02;;;;;;;32.35;17.20;;;;;;;;;;5036015;28;20077;-76
2022/12/14 09:38:29;;;;;;;33.85;18.35;;;;;;;;;;5035891;28;20045;-76
2022/12/14 09:40:56;;;;;;;34.08;18.15;;;;;;;;;;5053064;28;20049;-76
2022/12/14 09:43:32;;;;;;;35.65;18.40;;;;;;;;;;5052573;28;20047;-76
2022/12/14 09:46:03;;;;;;;31.23;17.45;;;;;;;;;;5053670;28;20492;-75
2022/12/14 09:48:29;;;;;;;32.67;18.08;;;;;;;;;;5053583;28;20044;-75
2022/12/14 09:50:55;;;;;;;30.08;17.15;;;;;;;;;;5053390;28;20043;-75
2022/12/14 09:53:21;;;;;;;27.48;16.98;;;;;;;;;;5035382;28;20127;-75
2022/12/14 09:55:53;;;;;;;33.92;17.52;;;;;;;;;;5053594;28;20041;-76
2022/12/14 09:58:21;;;;;;;34.88;18.40;;;;;;;;;;5053388;28;20053;-76
2022/12/14 10:00:51;;;;;;;32.63;17.85;;;;;;;;;;5054120;28;20084;-75
2022/12/14 10:03:35;;;;;;;32.20;18.02;;;;;;;;;;5045234;28;20041;-75
2022/12/14 10:06:14;;;;;;;37.83;19.45;;;;;;;;;;5033550;28;20355;-75
2022/12/14 10:08:48;;;;;;;38.30;18.33;;;;;;;;;;5049044;28;20056;-75
2022/12/14 10:11:28;;;;;;;36.22;18.73;;;;;;;;;;5047939;28;20057;-75
2022/12/14 10:14:06;;;;;;;36.65;21.08;;;;;;;;;;5034051;28;20088;-75
2022/12/14 10:16:38;;;;;;;38.70;21.10;;;;;;;;;;5052968;28;20036;-75
2022/12/14 10:19:20;;;;;;;40.00;20.98;;;;;;;;;;5051804;28;20090;-75
2022/12/14 10:21:48;;;;;;;38.03;19.33;;;;;;;;;;5051254;28;20037;-75
2022/12/14 10:24:37;;;;;;;35.15;19.15;;;;;;;;;;5045610;28;20103;-76
2022/12/14 10:27:06;;;;;;;36.25;20.80;;;;;;;;;;5035942;28;20045;-75
2022/12/14 10:29:39;;;;;;;32.83;17.48;;;;;;;;;;5055328;28;20115;-75
2022/12/14 10:32:05;;;;;;;35.95;18.75;;;;;;;;;;5056441;28;20459;-75
2022/12/14 10:34:31;;;;;;;34.55;18.90;;;;;;;;;;5055035;28;20044;-75
2022/12/14 10:36:58;;;;;;;37.75;20.65;;;;;;;;;;5053839;28;20128;-75
2022/12/14 10:39:24;;;;;;;31.77;17.92;;;;;;;;;;5055151;28;20079;-75
2022/12/14 10:41:58;;;;;;;31.77;17.38;;;;;;;;;;5055659;28;20072;-75
2022/12/14 10:44:37;;;;;;;26.60;16.15;;;;;;;;;;5051414;28;20044;-75
2022/12/14 10:47:07;;;;;;;30.73;17.25;;;;;;;;;;5044156;28;20049;-76
2022/12/14 10:49:44;;;;;;;32.13;17.42;;;;;;;;;;5046180;28;20515;-75
2022/12/14 10:52:15;;;;;;;27.92;17.55;;;;;;;;;;5056870;28;20497;-76
2022/12/14 10:54:47;;;;;;;29.50;17.15;;;;;;;;;;5055933;28;20053;-76
2022/12/14 10:57:17;;;;;;;30.00;17.15;;;;;;;;;;5057142;28;20159;-76
2022/12/14 10:59:43;;;;;;;27.02;16.45;;;;;;;;;;5021894;28;20045;-76
2022/12/14 11:02:15;;;;;;;25.80;15.82;;;;;;;;;;5019696;28;20041;-76
2022/12/14 11:04:44;;;;;;;25.17;14.55;;;;;;;;;;5056679;28;20041;-75
2022/12/14 11:07:12;;;;;;;27.92;14.93;;;;;;;;;;5056154;28;20084;-75
2022/12/14 11:09:39;;;;;;;23.00;13.38;;;;;;;;;;5056614;28;20041;-75
2022/12/14 11:12:05;;;;;;;25.25;14.10;;;;;;;;;;5055295;28;20053;-75
2022/12/14 11:14:31;;;;;;;25.90;14.45;;;;;;;;;;5053979;28;20041;-75
2022/12/14 11:16:57;;;;;;;24.77;13.95;;;;;;;;;;5056168;28;20469;-75
2022/12/14 11:19:25;;;;;;;25.58;14.23;;;;;;;;;;5054181;28;20045;-75
2022/12/14 11:22:04;;;;;;;28.30;15.23;;;;;;;;;;5055872;28;20052;-75
2022/12/14 11:24:30;;;;;;;25.70;13.60;;;;;;;;;;5056167;28;20107;-75
2022/12/14 11:27:00;;;;;;;23.60;13.77;;;;;;;;;;5056040;28;20053;-78
2022/12/14 11:29:38;;;;;;;23.10;13.40;;;;;;;;;;5037513;28;20124;-75
2022/12/14 11:32:04;;;;;;;24.17;13.75;;;;;;;;;;5055975;28;20085;-75
2022/12/14 11:34:34;;;;;;;28.90;16.85;;;;;;;;;;5054566;28;20119;-75
2022/12/14 11:37:10;;;;;;;18.55;11.15;;;;;;;;;;5055872;28;20088;-75
2022/12/14 11:39:37;;;;;;;19.08;11.43;;;;;;;;;;5054495;28;20045;-75
2022/12/14 11:42:03;;;;;;;22.48;12.43;;;;;;;;;;5036055;28;20050;-75
2022/12/14 11:44:37;;;;;;;21.10;11.90;;;;;;;;;;5035806;28;20489;-75
2022/12/14 11:47:11;;;;;;;20.65;12.20;;;;;;;;;;5036078;28;20107;-75
2022/12/14 11:49:39;;;;;;;20.60;12.90;;;;;;;;;;5042897;28;20103;-75
2022/12/14 11:52:06;;;;;;;20.75;11.52;;;;;;;;;;5050354;28;20120;-75
2022/12/14 11:54:36;;;;;;;20.70;12.18;;;;;;;;;;5037588;28;20037;-76
2022/12/14 11:57:07;;;;;;;22.90;12.93;;;;;;;;;;5055208;28;20474;-75
2022/12/14 11:59:38;;;;;;;19.05;11.40;;;;;;;;;;5055122;28;20508;-75
2022/12/14 12:02:19;;;;;;;21.15;11.75;;;;;;;;;;5055474;28;20052;-75
2022/12/14 12:04:47;;;;;;;20.40;12.18;;;;;;;;;;5047954;28;20117;-75
2022/12/14 12:07:28;;;;;;;19.55;12.35;;;;;;;;;;5053202;28;20420;-75
2022/12/14 12:09:55;;;;;;;20.75;12.45;;;;;;;;;;5054757;28;20071;-75
2022/12/14 12:12:21;;;;;;;18.48;11.50;;;;;;;;;;5036973;28;20057;-75
2022/12/14 12:14:52;;;;;;;18.60;10.80;;;;;;;;;;5055116;28;20121;-75
2022/12/14 12:17:38;;;;;;;18.00;11.05;;;;;;;;;;5054728;28;20044;-75
2022/12/14 12:20:12;;;;;;;18.42;10.57;;;;;;;;;;5054406;28;20056;-75
2022/12/14 12:22:43;;;;;;;19.35;9.65;;;;;;;;;;5054980;28;20044;-75
2022/12/14 12:25:13;;;;;;;15.57;9.48;;;;;;;;;;5055006;28;20084;-75
2022/12/14 12:27:39;;;;;;;13.80;8.88;;;;;;;;;;5055079;28;20047;-75
2022/12/14 12:30:07;;;;;;;14.85;9.27;;;;;;;;;;5053545;28;20045;-75
2022/12/14 12:32:39;;;;;;;16.67;9.13;;;;;;;;;;5054266;28;20045;-75
2022/12/14 12:35:08;;;;;;;17.63;10.80;;;;;;;;;;5054166;28;20045;-75
2022/12/14 12:37:43;;;;;;;17.55;10.07;;;;;;;;;;5049385;28;20526;-75
2022/12/14 12:40:15;;;;;;;19.10;11.73;;;;;;;;;;5048114;28;20044;-76
2022/12/14 12:42:53;;;;;;;18.83;10.15;;;;;;;;;;5054999;28;20099;-75
2022/12/14 12:45:19;;;;;;;19.60;11.13;;;;;;;;;;5054661;28;20045;-77
2022/12/14 12:47:55;;;;;;;15.38;10.05;;;;;;;;;;5036704;28;20044;-77
2022/12/14 12:50:21;;;;;;;;;;;;;;;;;;5053911;28;20127;-75
2022/12/14 12:52:56;;;;;;;15.67;8.97;;;;;;;;;;5054076;28;19967;-75
2022/12/14 12:55:24;;;;;;;15.57;9.93;;;;;;;;;;5054006;28;20041;-75
2022/12/14 12:57:52;;;;;;;16.98;9.82;;;;;;;;;;5053866;28;20041;-75
2022/12/14 13:00:21;;;;;;;17.70;9.63;;;;;;;;;;5054333;28;20119;-76
2022/12/14 13:02:56;;;;;;;17.88;10.15;;;;;;;;;;5054203;28;20053;-76
2022/12/14 13:05:24;;;;;;;14.80;9.10;;;;;;;;;;5037915;28;20473;-76
2022/12/14 13:08:00;;;;;;;14.65;9.43;;;;;;;;;;5054487;28;20496;-76
2022/12/14 13:10:26;;;;;;;;;;;;;;;;;;5053971;28;20036;-76
2022/12/14 13:13:05;;;;;;;14.03;10.33;;;;;;;;;;5053504;28;20321;-76
2022/12/14 13:15:31;;;;;;;12.50;8.30;;;;;;;;;;5034434;28;20871;-76
2022/12/14 13:18:03;;;;;;;11.02;8.38;;;;;;;;;;5038456;28;20049;-76
2022/12/14 13:20:33;;;;;;;12.70;7.70;;;;;;;;;;5046248;28;20087;-76
2022/12/14 13:23:01;;;;;;;11.18;7.40;;;;;;;;;;5054292;28;20048;-76
2022/12/14 13:25:36;;;;;;;12.52;7.63;;;;;;;;;;5054310;28;20111;-76
2022/12/14 13:28:02;;;;;;;12.60;7.85;;;;;;;;;;5019975;28;20067;-78
2022/12/14 13:30:39;;;;;;;12.60;7.93;;;;;;;;;;5049808;28;20041;-76
2022/12/14 13:33:24;;;;;;;12.80;7.97;;;;;;;;;;5040304;28;20033;-76
2022/12/14 13:36:02;;;;;;;12.95;8.23;;;;;;;;;;5052888;28;20120;-76
2022/12/14 13:38:34;;;;;;;12.70;7.72;;;;;;;;;;5049737;28;20357;-76
2022/12/14 13:41:20;;;;;;;13.50;7.93;;;;;;;;;;5052026;28;20041;-76
2022/12/14 13:43:58;;;;;;;15.02;9.40;;;;;;;;;;5022420;28;20084;-76
2022/12/14 13:46:25;;;;;;;12.63;7.70;;;;;;;;;;5053760;28;20123;-76
2022/12/14 13:48:57;;;;;;;12.75;7.50;;;;;;;;;;5049198;28;20052;-76
2022/12/14 13:51:28;;;;;;;12.60;7.47;;;;;;;;;;5052921;28;20120;-76
2022/12/14 13:53:57;;;;;;;12.23;7.97;;;;;;;;;;5052835;28;20523;-76
2022/12/14 13:56:31;;;;;;;12.35;7.93;;;;;;;;;;5053186;28;20132;-76
2022/12/14 13:58:58;;;;;;;13.13;8.32;;;;;;;;;;5052652;28;20052;-76
2022/12/14 14:01:43;;;;;;;14.80;8.00;;;;;;;;;;5050085;28;20083;-76
2022/12/14 14:04:14;;;;;;;13.65;8.27;;;;;;;;;;5052700;28;20052;-76
2022/12/14 14:06:50;;;;;;;15.63;8.70;;;;;;;;;;5051769;28;20072;-76
2022/12/14 14:09:25;;;;;;;12.23;8.10;;;;;;;;;;5052305;28;20045;-75
2022/12/14 14:12:01;;;;;;;13.43;8.20;;;;;;;;;;5052725;28;20071;-75
2022/12/14 14:14:27;;;;;;;16.50;9.40;;;;;;;;;;5053642;28;20091;-76
2022/12/14 14:16:55;;;;;;;15.63;8.95;;;;;;;;;;5053256;28;20068;-78
2022/12/14 14:19:23;;;;;;;16.17;10.32;;;;;;;;;;5052427;28;20124;-75
2022/12/14 14:22:01;;;;;;;17.27;10.20;;;;;;;;;;5046039;28;20422;-75
2022/12/14 14:24:28;;;;;;;15.18;9.02;;;;;;;;;;5049928;28;20049;-75
2022/12/14 14:27:06;;;;;;;17.80;9.88;;;;;;;;;;5036460;28;20049;-75
2022/12/14 14:29:32;;;;;;;17.02;10.75;;;;;;;;;;5047483;28;20092;-75
2022/12/14 14:31:59;;;;;;;17.65;10.90;;;;;;;;;;5035251;28;20504;-75
2022/12/14 14:34:34;;;;;;;21.80;11.43;;;;;;;;;;5053622;28;20112;-76
2022/12/14 14:37:12;;;;;;;19.75;12.95;;;;;;;;;;5049207;28;20098;-75
2022/12/14 14:39:39;;;;;;;21.05;11.63;;;;;;;;;;5053407;28;20041;-76
2022/12/14 14:42:07;;;;;;;21.50;12.48;;;;;;;;;;5052939;28;20072;-75
2022/12/14 14:44:41;;;;;;;22.02;12.45;;;;;;;;;;5052017;28;20041;-77
2022/12/14 14:47:27;;;;;;;20.85;12.45;;;;;;;;;;5052415;28;20377;-74